createdAt,value
2018-10-12T00:00:00.776Z,54.16
2018-10-12T00:02:31.448Z,53.53
2018-10-12T00:04:59.271Z,54.28
2018-10-12T00:07:27.827Z,53.69
2018-10-12T00:09:55.364Z,53.78
2018-10-12T00:12:22.960Z,53.67
2018-10-12T00:14:50.997Z,54.27
2018-10-12T00:17:18.612Z,53.74
2018-10-12T00:19:46.184Z,54.12
2018-10-12T00:22:13.756Z,53.71
2018-10-12T00:24:41.321Z,54.30
2018-10-12T00:27:08.879Z,53.72
2018-10-12T00:29:36.717Z,54.10
2018-10-12T00:32:04.960Z,53.86
2018-10-12T00:34:32.579Z,53.54
2018-10-12T00:37:00.728Z,53.44
2018-10-12T00:39:28.600Z,54.22
2018-10-12T00:41:56.452Z,53.97
2018-10-12T00:44:24.008Z,53.27
2018-10-12T00:46:51.545Z,53.03
2018-10-12T00:49:19.455Z,53.27
2018-10-12T00:51:46.992Z,52.74
2018-10-12T00:54:14.576Z,52.75
2018-10-12T00:56:42.449Z,53.40
2018-10-12T00:59:10.006Z,53.16
2018-10-12T01:01:37.555Z,52.29
2018-10-12T01:04:05.112Z,52.37
2018-10-12T01:06:33.133Z,53.12
2018-10-12T01:11:34.345Z,52.34
2018-10-12T01:14:02.216Z,52.16
2018-10-12T01:16:29.756Z,52.45
2018-10-12T01:18:57.301Z,52.21
2018-10-12T01:21:24.841Z,52.99
2018-10-12T01:23:52.858Z,52.48
2018-10-12T01:26:20.413Z,52.65
2018-10-12T01:28:50.716Z,53.12
2018-10-12T01:31:18.847Z,53.33
2018-10-12T01:33:46.376Z,53.29
2018-10-12T01:36:13.920Z,53.58
2018-10-12T01:38:41.505Z,53.44
2018-10-12T01:41:09.116Z,53.65
2018-10-12T01:43:36.697Z,53.21
2018-10-12T01:46:07.398Z,53.39
2018-10-12T01:48:35.399Z,53.71
2018-10-12T01:51:02.953Z,53.77
2018-10-12T01:53:30.507Z,54.19
2018-10-12T01:56:03.452Z,54.10
2018-10-12T01:58:32.120Z,53.79
2018-10-12T02:00:59.648Z,53.66
2018-10-12T02:03:27.193Z,54.04
2018-10-12T02:05:55.180Z,54.00
2018-10-12T02:08:22.772Z,54.14
2018-10-12T02:10:50.297Z,54.23
2018-10-12T02:13:18.776Z,55.13
2018-10-12T02:15:46.665Z,54.20
2018-10-12T02:18:14.232Z,54.98
2018-10-12T02:20:41.787Z,55.30
2018-10-12T02:23:09.639Z,55.18
2018-10-12T02:25:37.180Z,54.80
2018-10-12T02:28:04.745Z,54.71
2018-10-12T02:30:32.333Z,55.15
2018-10-12T02:33:00.261Z,55.20
2018-10-12T02:35:27.816Z,55.86
2018-10-12T02:37:55.336Z,55.76
2018-10-12T02:40:23.258Z,55.97
2018-10-12T02:42:50.816Z,55.60
2018-10-12T02:45:18.368Z,55.31
2018-10-12T02:47:45.901Z,55.96
2018-10-12T02:50:13.896Z,55.85
2018-10-12T02:52:41.460Z,56.02
2018-10-12T02:55:08.994Z,55.80
2018-10-12T02:57:36.540Z,56.67
2018-10-12T03:00:04.875Z,56.06
2018-10-12T03:02:32.461Z,56.64
2018-10-12T03:05:00.085Z,56.17
2018-10-12T03:07:27.712Z,56.37
2018-10-12T03:09:55.293Z,56.56
2018-10-12T03:12:22.817Z,56.88
2018-10-12T03:14:50.384Z,56.03
2018-10-12T03:17:18.404Z,56.63
2018-10-12T03:19:45.951Z,57.27
2018-10-12T03:22:13.769Z,56.62
2018-10-12T03:24:41.336Z,57.57
2018-10-12T03:27:09.269Z,56.96
2018-10-12T03:29:36.810Z,56.91
2018-10-12T03:32:04.377Z,57.37
2018-10-12T03:34:32.240Z,57.64
2018-10-12T03:37:02.890Z,57.07
2018-10-12T03:39:30.389Z,57.98
2018-10-12T03:41:58.281Z,58.35
2018-10-12T03:44:25.817Z,58.39
2018-10-12T03:46:53.353Z,58.50
2018-10-12T03:49:21.280Z,58.37
2018-10-12T03:51:48.858Z,58.54
2018-10-12T03:54:16.387Z,58.18
2018-10-12T03:56:44.265Z,58.65
2018-10-12T03:59:12.414Z,58.40
2018-10-12T04:01:39.985Z,58.44
2018-10-12T04:04:08.548Z,58.98
2018-10-12T04:06:36.517Z,58.93
2018-10-12T04:09:04.769Z,58.37
2018-10-12T04:11:35.684Z,58.37
2018-10-12T04:14:03.216Z,58.74
2018-10-12T04:16:30.772Z,59.06
2018-10-12T04:18:58.781Z,58.24
2018-10-12T04:21:26.324Z,59.09
2018-10-12T04:23:53.879Z,58.72
2018-10-12T04:26:22.384Z,59.33
2018-10-12T04:28:49.967Z,58.53
2018-10-12T04:31:17.510Z,58.22
2018-10-12T04:33:45.444Z,59.09
2018-10-12T04:36:12.996Z,59.03
2018-10-12T04:38:40.580Z,59.38
2018-10-12T04:41:13.020Z,59.23
2018-10-12T04:43:40.561Z,58.80
2018-10-12T04:46:08.676Z,59.25
2018-10-12T04:48:36.828Z,58.97
2018-10-12T04:51:04.380Z,59.20
2018-10-12T04:53:31.933Z,58.90
2018-10-12T04:55:59.828Z,59.02
2018-10-12T04:58:27.513Z,59.49
2018-10-12T05:00:55.089Z,59.47
2018-10-12T05:03:23.151Z,59.13
2018-10-12T05:05:50.713Z,59.63
2018-10-12T05:08:18.271Z,59.25
2018-10-12T05:10:46.431Z,59.40
2018-10-12T05:13:13.976Z,59.03
2018-10-12T05:15:42.695Z,59.88
2018-10-12T05:18:10.476Z,59.97
2018-10-12T05:20:40.836Z,59.87
2018-10-12T05:23:09.479Z,59.86
2018-10-12T05:25:37.076Z,59.77
2018-10-12T05:28:04.635Z,60.03
2018-10-12T05:30:32.617Z,59.73
2018-10-12T05:33:00.144Z,59.76
2018-10-12T05:35:27.731Z,59.41
2018-10-12T05:37:55.667Z,59.40
2018-10-12T05:40:24.927Z,59.95
2018-10-12T05:42:52.587Z,60.43
2018-10-12T05:45:20.469Z,60.47
2018-10-12T05:47:48.012Z,59.70
2018-10-12T05:50:15.576Z,59.31
2018-10-12T05:52:43.416Z,60.38
2018-10-12T05:55:10.992Z,60.19
2018-10-12T05:57:38.916Z,59.67
2018-10-12T06:00:06.896Z,59.83
2018-10-12T06:02:34.452Z,59.83
2018-10-12T06:05:02.874Z,60.32
2018-10-12T06:07:30.985Z,59.84
2018-10-12T06:09:58.610Z,60.25
2018-10-12T06:12:26.121Z,59.73
2018-10-12T06:14:54.008Z,60.45
2018-10-12T06:17:21.601Z,60.48
2018-10-12T06:19:49.139Z,60.35
2018-10-12T06:22:17.041Z,60.54
2018-10-12T06:24:44.580Z,59.94
2018-10-12T06:27:12.633Z,59.93
2018-10-12T06:29:40.593Z,59.98
2018-10-12T06:32:08.229Z,60.28
2018-10-12T06:34:35.805Z,59.66
2018-10-12T06:37:03.784Z,60.02
2018-10-12T06:39:31.350Z,60.39
2018-10-12T06:41:58.875Z,59.75
2018-10-12T06:44:26.755Z,60.16
2018-10-12T06:46:54.879Z,59.77
2018-10-12T06:49:22.636Z,60.03
2018-10-12T06:51:50.584Z,60.48
2018-10-12T06:54:18.132Z,60.05
2018-10-12T06:56:47.150Z,60.01
2018-10-12T06:59:15.740Z,59.81
2018-10-12T07:01:43.309Z,59.71
2018-10-12T07:04:11.956Z,59.98
2018-10-12T07:06:39.820Z,60.34
2018-10-12T07:09:07.371Z,59.20
2018-10-12T07:11:34.931Z,59.17
2018-10-12T07:14:02.857Z,58.93
2018-10-12T07:16:30.549Z,59.41
2018-10-12T07:18:58.086Z,58.57
2018-10-12T07:21:26.042Z,58.56
2018-10-12T07:23:53.633Z,58.39
2018-10-12T07:26:21.254Z,57.95
2018-10-12T07:28:49.198Z,58.05
2018-10-12T07:31:16.797Z,58.08
2018-10-12T07:33:44.356Z,57.34
2018-10-12T07:36:13.255Z,57.19
2018-10-12T07:38:40.789Z,57.83
2018-10-12T07:41:08.319Z,56.78
2018-10-12T07:43:39.885Z,56.63
2018-10-12T07:46:07.420Z,57.38
2018-10-12T07:48:35.840Z,57.06
2018-10-12T07:51:03.888Z,56.66
2018-10-12T07:53:31.583Z,56.05
2018-10-12T07:55:59.208Z,56.93
2018-10-12T07:58:27.805Z,56.62
2018-10-12T08:00:57.364Z,55.62
2018-10-12T08:03:24.898Z,55.56
2018-10-12T08:05:53.557Z,55.65
2018-10-12T08:08:21.113Z,56.05
2018-10-12T08:10:49.773Z,55.84
2018-10-12T08:13:17.753Z,55.69
2018-10-12T08:15:45.345Z,55.15
2018-10-12T08:18:13.953Z,54.73
2018-10-12T08:20:42.559Z,55.17
2018-10-12T08:23:10.145Z,54.23
2018-10-12T08:25:37.821Z,54.94
2018-10-12T08:28:06.027Z,54.56
2018-10-12T08:30:33.869Z,53.69
2018-10-12T08:33:03.274Z,53.61
2018-10-12T08:35:32.130Z,53.81
2018-10-12T08:37:59.668Z,53.71
2018-10-12T08:40:28.174Z,52.96
2018-10-12T08:42:57.444Z,53.08
2018-10-12T08:45:25.192Z,52.95
2018-10-12T08:47:53.724Z,53.51
2018-10-12T08:50:24.684Z,52.84
2018-10-12T08:52:52.217Z,52.51
2018-10-12T08:55:19.767Z,53.06
2018-10-12T08:57:48.785Z,52.96
2018-10-12T09:00:16.556Z,52.79
2018-10-12T09:02:44.167Z,52.33
2018-10-12T09:05:12.172Z,52.51
2018-10-12T09:07:39.716Z,51.78
2018-10-12T09:10:07.263Z,52.27
2018-10-12T09:12:34.813Z,51.69
2018-10-12T09:15:02.391Z,51.28
2018-10-12T09:17:30.352Z,51.73
2018-10-12T09:19:57.917Z,51.72
2018-10-12T09:22:25.520Z,51.10
2018-10-12T09:24:53.553Z,51.18
2018-10-12T09:27:22.331Z,50.79
2018-10-12T09:29:49.937Z,50.88
2018-10-12T09:32:17.874Z,50.24
2018-10-12T09:34:45.440Z,50.44
2018-10-12T09:37:13.189Z,50.23
2018-10-12T09:39:41.333Z,48.99
2018-10-12T09:42:08.935Z,48.06
2018-10-12T09:44:36.484Z,46.88
2018-10-12T09:47:04.619Z,45.69
2018-10-12T09:49:33.318Z,44.11
2018-10-12T09:52:01.207Z,43.21
2018-10-12T09:54:29.958Z,43.03
2018-10-12T09:57:02.637Z,41.52
2018-10-12T09:59:30.501Z,40.85
2018-10-12T10:02:03.545Z,41.07
2018-10-12T10:04:32.529Z,40.14
2018-10-12T10:07:15.456Z,39.73
2018-10-12T10:09:43.516Z,39.26
2018-10-12T10:12:11.116Z,38.00
2018-10-12T10:14:38.679Z,37.16
2018-10-12T10:17:07.476Z,38.41
2018-10-12T10:19:35.022Z,38.55
2018-10-12T10:22:03.289Z,38.13
2018-10-12T10:24:31.283Z,37.97
2018-10-12T10:26:59.771Z,37.04
2018-10-12T10:29:27.404Z,37.55
2018-10-12T10:31:55.260Z,37.58
2018-10-12T10:34:23.552Z,37.58
2018-10-12T10:36:51.176Z,36.70
2018-10-12T10:39:19.832Z,37.07
2018-10-12T10:41:47.545Z,36.40
2018-10-12T10:44:15.376Z,36.86
2018-10-12T10:46:44.878Z,38.46
2018-10-12T10:49:12.499Z,39.44
2018-10-12T10:51:40.152Z,40.12
2018-10-12T10:54:08.084Z,41.49
2018-10-12T10:56:35.721Z,42.83
2018-10-12T10:59:06.391Z,43.32
2018-10-12T11:01:34.360Z,42.01
2018-10-12T11:04:02.685Z,42.21
2018-10-12T11:06:34.443Z,41.15
2018-10-12T11:09:06.534Z,41.31
2018-10-12T11:11:35.292Z,40.07
2018-10-12T11:14:02.892Z,39.26
2018-10-12T11:16:30.751Z,38.17
2018-10-12T11:18:58.323Z,38.67
2018-10-12T11:21:25.859Z,38.96
2018-10-12T11:23:54.979Z,39.04
2018-10-12T11:26:22.619Z,39.08
2018-10-12T11:28:50.166Z,39.06
2018-10-12T11:31:18.424Z,38.33
2018-10-12T11:33:47.760Z,36.70
2018-10-12T11:36:15.462Z,35.01
2018-10-12T11:38:43.389Z,35.19
2018-10-12T11:41:10.936Z,33.92
2018-10-12T11:43:39.472Z,34.54
2018-10-12T11:46:08.028Z,35.03
2018-10-12T11:48:36.220Z,36.76
2018-10-12T11:51:03.803Z,36.38
2018-10-12T11:53:32.663Z,37.01
2018-10-12T11:56:00.218Z,36.77
2018-10-12T11:58:28.767Z,36.47
2018-10-12T12:00:56.680Z,36.75
2018-10-12T12:03:24.298Z,36.57
2018-10-12T12:05:51.890Z,36.37
2018-10-12T12:08:19.856Z,35.98
2018-10-12T12:10:47.437Z,36.49
2018-10-12T12:13:15.549Z,35.97
2018-10-12T12:15:43.513Z,36.90
2018-10-12T12:18:11.226Z,36.56
2018-10-12T12:20:38.825Z,37.59
2018-10-12T12:23:06.825Z,37.83
2018-10-12T12:25:36.435Z,37.82
2018-10-12T12:28:04.022Z,37.29
2018-10-12T12:30:31.888Z,37.68
2018-10-12T12:32:59.505Z,36.97
2018-10-12T12:35:27.416Z,37.34
2018-10-12T12:37:55.137Z,38.44
2018-10-12T12:40:22.718Z,38.18
2018-10-12T12:42:51.229Z,38.86
2018-10-12T12:45:20.528Z,39.00
2018-10-12T12:47:48.291Z,38.29
2018-10-12T12:50:15.971Z,38.28
2018-10-12T12:52:43.908Z,38.82
2018-10-12T12:55:11.432Z,38.87
2018-10-12T12:57:38.956Z,38.54
2018-10-12T13:00:07.735Z,38.72
2018-10-12T13:02:35.357Z,38.77
2018-10-12T13:05:03.944Z,39.09
2018-10-12T13:07:31.924Z,39.40
2018-10-12T13:09:59.520Z,38.74
2018-10-12T13:12:28.988Z,38.54
2018-10-12T13:14:56.974Z,38.11
2018-10-12T13:17:24.500Z,39.03
2018-10-12T13:19:52.324Z,38.32
2018-10-12T13:22:20.983Z,38.72
2018-10-12T13:24:49.531Z,39.00
2018-10-12T13:27:18.582Z,38.11
2018-10-12T13:29:46.436Z,38.23
2018-10-12T13:32:14.249Z,38.14
2018-10-12T13:34:42.485Z,38.02
2018-10-12T13:37:10.420Z,38.12
2018-10-12T13:39:37.993Z,37.95
2018-10-12T13:42:06.196Z,37.90
2018-10-12T13:44:37.815Z,37.76
2018-10-12T13:47:05.365Z,37.85
2018-10-12T13:49:32.904Z,38.49
2018-10-12T13:52:01.728Z,37.66
2018-10-12T13:54:29.400Z,38.54
2018-10-12T13:57:00.395Z,38.65
2018-10-12T13:59:30.316Z,38.61
2018-10-12T14:01:57.960Z,38.70
2018-10-12T14:04:25.793Z,38.64
2018-10-12T14:06:53.619Z,38.26
2018-10-12T14:09:22.181Z,38.43
2018-10-12T14:11:49.742Z,37.92
2018-10-12T14:14:17.285Z,37.72
2018-10-12T14:16:45.821Z,38.49
2018-10-12T14:19:14.965Z,37.68
2018-10-12T14:21:42.950Z,38.42
2018-10-12T14:24:10.529Z,37.80
2018-10-12T14:26:39.106Z,38.50
2018-10-12T14:29:07.291Z,38.76
2018-10-12T14:31:36.302Z,38.36
2018-10-12T14:34:04.264Z,39.21
2018-10-12T14:36:31.814Z,38.73
2018-10-12T14:39:00.763Z,39.54
2018-10-12T14:41:28.701Z,39.46
2018-10-12T14:43:56.359Z,39.67
2018-10-12T14:46:23.828Z,39.56
2018-10-12T14:48:51.889Z,39.65
2018-10-12T14:51:19.532Z,39.01
2018-10-12T14:53:47.115Z,40.28
2018-10-12T14:56:17.173Z,39.45
2018-10-12T14:58:44.849Z,39.79
2018-10-12T15:01:12.448Z,39.36
2018-10-12T15:03:40.268Z,40.14
2018-10-12T15:06:07.803Z,40.29
2018-10-12T15:08:35.342Z,39.46
2018-10-12T15:11:03.273Z,39.99
2018-10-12T15:13:31.645Z,39.44
2018-10-12T15:15:59.180Z,40.44
2018-10-12T15:18:27.854Z,40.13
2018-10-12T15:20:57.398Z,40.19
2018-10-12T15:23:25.096Z,39.22
2018-10-12T15:25:53.732Z,38.93
2018-10-12T15:28:21.322Z,38.87
2018-10-12T15:30:50.067Z,38.99
2018-10-12T15:33:17.960Z,39.65
2018-10-12T15:35:45.484Z,40.86
2018-10-12T15:38:13.666Z,40.96
2018-10-12T15:40:42.073Z,40.67
2018-10-12T15:43:09.699Z,41.04
2018-10-12T15:45:38.145Z,41.44
2018-10-12T15:48:06.004Z,41.37
2018-10-12T15:50:34.223Z,42.27
2018-10-12T15:53:01.799Z,42.64
2018-10-12T15:55:29.821Z,42.56
2018-10-12T15:57:57.380Z,42.72
2018-10-12T16:00:25.924Z,42.36
2018-10-12T16:02:53.819Z,43.36
2018-10-12T16:05:21.357Z,43.09
2018-10-12T16:07:50.169Z,43.67
2018-10-12T16:10:17.984Z,43.07
2018-10-12T16:12:45.521Z,43.52
2018-10-12T16:15:13.896Z,44.13
2018-10-12T16:17:41.853Z,43.64
2018-10-12T16:20:09.428Z,44.56
2018-10-12T16:22:38.362Z,44.50
2018-10-12T16:25:06.237Z,44.16
2018-10-12T16:27:33.832Z,44.76
2018-10-12T16:30:01.480Z,45.21
2018-10-12T16:32:29.445Z,45.14
2018-10-12T16:34:58.805Z,44.85
2018-10-12T16:37:26.564Z,45.22
2018-10-12T16:39:54.520Z,45.75
2018-10-12T16:42:22.176Z,45.39
2018-10-12T16:44:49.747Z,46.00
2018-10-12T16:47:19.286Z,46.20
2018-10-12T16:49:49.208Z,46.43
2018-10-12T16:52:19.288Z,45.84
2018-10-12T16:54:48.368Z,46.49
2018-10-12T16:57:17.624Z,46.17
2018-10-12T16:59:45.165Z,46.51
2018-10-12T17:02:13.907Z,46.86
2018-10-12T17:04:41.489Z,47.23
2018-10-12T17:07:09.038Z,46.76
2018-10-12T17:09:39.717Z,46.85
2018-10-12T17:12:09.544Z,47.02
2018-10-12T17:14:37.361Z,47.51
2018-10-12T17:17:19.568Z,47.71
2018-10-12T17:19:47.751Z,47.65
2018-10-12T17:22:15.651Z,47.72
2018-10-12T17:24:46.344Z,47.67
2018-10-12T17:27:17.513Z,48.06
2018-10-12T17:29:46.204Z,47.76
2018-10-12T17:35:03.730Z,48.23
2018-10-12T17:37:31.525Z,48.01
2018-10-12T17:39:59.764Z,47.90
2018-10-12T17:42:27.910Z,48.56
2018-10-12T17:44:57.975Z,48.54
2018-10-12T17:47:26.568Z,48.61
2018-10-12T17:49:56.941Z,48.50
2018-10-12T17:52:24.873Z,48.92
2018-10-12T17:54:52.442Z,48.81
2018-10-12T17:57:20.064Z,48.52
2018-10-12T17:59:48.124Z,49.05
2018-10-12T18:02:16.231Z,49.82
2018-10-12T18:04:43.785Z,49.46
2018-10-12T18:07:12.111Z,50.34
2018-10-12T18:09:40.032Z,50.35
2018-10-12T18:12:07.634Z,49.92
2018-10-12T18:14:36.220Z,50.38
2018-10-12T18:17:04.353Z,50.33
2018-10-12T18:19:33.173Z,51.12
2018-10-12T18:22:01.120Z,51.22
2018-10-12T18:24:28.800Z,51.16
2018-10-12T18:26:56.355Z,50.84
2018-10-12T18:29:24.273Z,51.12
2018-10-12T18:31:51.876Z,51.94
2018-10-12T18:34:20.819Z,51.26
2018-10-12T18:36:49.697Z,51.73
2018-10-12T18:39:17.264Z,52.22
2018-10-12T18:41:51.516Z,52.02
2018-10-12T18:44:19.492Z,52.40
2018-10-12T18:46:47.049Z,51.85
2018-10-12T18:49:15.373Z,52.05
2018-10-12T18:51:46.185Z,52.26
2018-10-12T18:54:14.444Z,52.70
2018-10-12T18:56:42.859Z,52.57
2018-10-12T18:59:10.918Z,52.27
2018-10-12T19:01:38.472Z,53.16
2018-10-12T19:04:06.912Z,52.40
2018-10-12T19:06:34.808Z,52.73
2018-10-12T19:09:04.640Z,53.00
2018-10-12T19:11:33.195Z,53.39
2018-10-12T19:14:01.375Z,53.49
2018-10-12T19:16:29.702Z,53.18
2018-10-12T19:18:57.278Z,53.07
2018-10-12T19:21:28.496Z,53.34
2018-10-12T19:23:56.157Z,53.13
2018-10-12T19:26:25.272Z,54.15
2018-10-12T19:28:58.604Z,54.17
2018-10-12T19:31:28.707Z,53.30
2018-10-12T19:33:59.521Z,54.31
2018-10-12T19:36:27.395Z,53.56
2018-10-12T19:38:54.988Z,53.89
2018-10-12T19:41:23.369Z,54.73
2018-10-12T19:43:51.464Z,54.44
2018-10-12T19:46:22.907Z,54.33
2018-10-12T19:48:51.316Z,54.08
2018-10-12T19:51:22.606Z,54.00
2018-10-12T19:53:51.395Z,54.79
2018-10-12T19:56:19.009Z,54.88
2018-10-12T19:58:47.646Z,55.14
2018-10-12T20:01:16.699Z,54.61
2018-10-12T20:03:44.278Z,54.61
2018-10-12T20:06:13.295Z,54.53
2018-10-12T20:08:42.363Z,54.73
2018-10-12T20:11:10.799Z,54.52
2018-10-12T20:13:39.434Z,54.56
2018-10-12T20:16:07.992Z,54.60
2018-10-12T20:18:35.540Z,54.57
2018-10-12T20:21:04.556Z,55.28
2018-10-12T20:23:32.097Z,54.71
2018-10-12T20:25:59.652Z,54.66
2018-10-12T20:28:28.358Z,55.08
2018-10-12T20:30:57.054Z,55.63
2018-10-12T20:33:24.661Z,55.38
2018-10-12T20:35:52.579Z,55.46
2018-10-12T20:38:20.400Z,55.66
2018-10-12T20:40:47.946Z,54.85
2018-10-12T20:43:19.175Z,55.53
2018-10-12T20:45:46.785Z,54.89
2018-10-12T20:48:16.230Z,55.17
2018-10-12T20:50:44.864Z,55.79
2018-10-12T20:53:12.481Z,55.06
2018-10-12T20:55:40.296Z,55.91
2018-10-12T20:58:13.485Z,55.08
2018-10-12T21:00:41.849Z,55.66
2018-10-12T21:03:09.400Z,55.35
2018-10-12T21:05:37.495Z,55.30
2018-10-12T21:08:05.393Z,55.92
2018-10-12T21:10:34.025Z,55.58
2018-10-12T21:13:02.039Z,55.87
2018-10-12T21:15:29.584Z,55.13
2018-10-12T21:17:57.278Z,55.24
2018-10-12T21:20:25.201Z,55.25
2018-10-12T21:22:58.193Z,55.82
2018-10-12T21:25:25.744Z,55.95
2018-10-12T21:28:02.530Z,55.31
2018-10-12T21:30:30.093Z,55.87
2018-10-12T21:32:58.389Z,55.86
2018-10-12T21:35:26.597Z,55.56
2018-10-12T21:37:54.140Z,55.59
2018-10-12T21:40:21.893Z,55.74
2018-10-12T21:42:50.752Z,55.14
2018-10-12T21:45:19.903Z,55.95
2018-10-12T21:47:47.479Z,55.95
2018-10-12T21:50:15.393Z,56.08
2018-10-12T21:52:44.277Z,55.76
2018-10-12T21:55:11.832Z,55.02
2018-10-12T21:57:39.809Z,55.24
2018-10-12T22:00:09.464Z,55.39
2018-10-12T22:02:38.967Z,55.32
2018-10-12T22:05:06.506Z,54.90
2018-10-12T22:07:34.114Z,55.16
2018-10-12T22:10:02.681Z,55.03
2018-10-12T22:12:30.288Z,55.02
2018-10-12T22:14:59.167Z,55.21
2018-10-12T22:17:27.049Z,55.72
2018-10-12T22:19:54.724Z,55.08
2018-10-12T22:22:23.640Z,55.68
2018-10-12T22:24:52.704Z,55.41
2018-10-12T22:27:20.502Z,55.38
2018-10-12T22:29:48.606Z,55.31
2018-10-12T22:32:18.201Z,54.64
2018-10-12T22:34:45.769Z,55.46
2018-10-12T22:37:14.258Z,54.76
2018-10-12T22:39:43.734Z,54.79
2018-10-12T22:42:11.475Z,54.64
2018-10-12T22:44:39.037Z,55.03
2018-10-12T22:47:06.572Z,54.70
2018-10-12T22:49:35.129Z,55.10
2018-10-12T22:52:02.740Z,54.62
2018-10-12T22:54:31.401Z,54.99
2018-10-12T22:56:59.546Z,54.54
2018-10-12T22:59:27.736Z,54.53
2018-10-12T23:01:55.283Z,55.45
2018-10-12T23:04:23.304Z,54.87
2018-10-12T23:06:50.920Z,55.46
2018-10-12T23:09:18.549Z,55.13
2018-10-12T23:11:46.468Z,55.30
2018-10-12T23:14:14.049Z,54.83
2018-10-12T23:16:41.606Z,54.79
2018-10-12T23:19:09.180Z,55.54
2018-10-12T23:21:37.164Z,55.56
2018-10-12T23:24:04.781Z,55.83
2018-10-12T23:26:32.317Z,55.50
2018-10-12T23:29:00.157Z,55.33
2018-10-12T23:31:29.533Z,55.27
2018-10-12T23:33:57.108Z,55.55
2018-10-12T23:36:25.676Z,55.81
2018-10-12T23:38:54.270Z,55.84
2018-10-12T23:41:21.813Z,54.99
2018-10-12T23:43:49.385Z,55.65
2018-10-12T23:46:16.981Z,55.62
2018-10-12T23:48:44.890Z,55.84
2018-10-12T23:51:12.415Z,55.31
2018-10-12T23:53:40.953Z,55.79
2018-10-12T23:56:08.903Z,56.19
2018-10-12T23:58:36.485Z,55.95
